Terminal Aerodrome Forecast
Issued by NWS

Home | Current Version | Previous Version | Text Only | Print | Product List | Glossary On
Versions: 1 2 3 4 5 6 7 8 9 10 11 12 13 14
000
FTUS45 KRIW 210531
TAFCPR
TAF
KCPR 210531Z 2106/2206 21014G20KT P6SM FEW100
     FM210800 21010KT P6SM SKC
     FM211400 24007KT P6SM SKC
     FM212000 07008KT P6SM FEW150
     FM220500 VRB05KT P6SM SCT150=

USA.gov is the U.S. government's official web portal to all federal, state and local government web resources and services.